sensor_id;sensor_type;location;lat;lon;timestamp;temperature;humidity
72320;SHT30;60269;52.502;16.732;2023-02-28T00:03:20;-5.15;96.42
72320;SHT30;60269;52.502;16.732;2023-02-28T00:06:52;-5.12;95.92
72320;SHT30;60269;52.502;16.732;2023-02-28T00:10:27;-5.18;95.61
72320;SHT30;60269;52.502;16.732;2023-02-28T00:13:59;-5.38;96.45
72320;SHT30;60269;52.502;16.732;2023-02-28T00:17:31;-5.48;97.80
72320;SHT30;60269;52.502;16.732;2023-02-28T00:21:04;-5.90;97.85
72320;SHT30;60269;52.502;16.732;2023-02-28T00:24:36;-5.97;98.76
72320;SHT30;60269;52.502;16.732;2023-02-28T00:28:08;-5.97;98.69
72320;SHT30;60269;52.502;16.732;2023-02-28T00:31:40;-5.89;97.88
72320;SHT30;60269;52.502;16.732;2023-02-28T00:35:13;-5.42;96.77
72320;SHT30;60269;52.502;16.732;2023-02-28T00:38:45;-5.15;96.04
72320;SHT30;60269;52.502;16.732;2023-02-28T00:42:17;-5.15;95.76
72320;SHT30;60269;52.502;16.732;2023-02-28T00:45:49;-5.48;96.21
72320;SHT30;60269;52.502;16.732;2023-02-28T00:49:23;-5.73;97.26
72320;SHT30;60269;52.502;16.732;2023-02-28T00:52:55;-5.89;97.99
72320;SHT30;60269;52.502;16.732;2023-02-28T00:56:27;-5.87;98.63
72320;SHT30;60269;52.502;16.732;2023-02-28T00:59:59;-5.89;99.18
72320;SHT30;60269;52.502;16.732;2023-02-28T01:03:32;-6.14;99.70
72320;SHT30;60269;52.502;16.732;2023-02-28T01:07:04;-5.62;99.99
72320;SHT30;60269;52.502;16.732;2023-02-28T01:10:36;-5.43;98.08
72320;SHT30;60269;52.502;16.732;2023-02-28T01:14:08;-5.38;99.10
72320;SHT30;60269;52.502;16.732;2023-02-28T01:17:40;-5.12;99.33
72320;SHT30;60269;52.502;16.732;2023-02-28T01:21:14;-5.14;98.02
72320;SHT30;60269;52.502;16.732;2023-02-28T01:24:46;-5.49;96.53
72320;SHT30;60269;52.502;16.732;2023-02-28T01:28:19;-5.80;97.55
72320;SHT30;60269;52.502;16.732;2023-02-28T01:31:51;-5.91;97.34
72320;SHT30;60269;52.502;16.732;2023-02-28T01:35:23;-6.02;98.06
72320;SHT30;60269;52.502;16.732;2023-02-28T01:38:56;-6.05;97.10
72320;SHT30;60269;52.502;16.732;2023-02-28T01:42:28;-5.89;97.48
72320;SHT30;60269;52.502;16.732;2023-02-28T01:46:00;-5.76;98.57
72320;SHT30;60269;52.502;16.732;2023-02-28T01:49:32;-5.84;98.21
72320;SHT30;60269;52.502;16.732;2023-02-28T01:53:07;-6.07;98.27
72320;SHT30;60269;52.502;16.732;2023-02-28T01:56:52;-5.90;99.24
72320;SHT30;60269;52.502;16.732;2023-02-28T02:00:26;-5.64;98.52
72320;SHT30;60269;52.502;16.732;2023-02-28T02:04:01;-5.87;97.40
72320;SHT30;60269;52.502;16.732;2023-02-28T02:07:39;-6.21;97.76
72320;SHT30;60269;52.502;16.732;2023-02-28T02:11:13;-6.31;98.53
72320;SHT30;60269;52.502;16.732;2023-02-28T02:19:02;-6.24;98.58
72320;SHT30;60269;52.502;16.732;2023-02-28T02:23:09;-5.94;96.87
72320;SHT30;60269;52.502;16.732;2023-02-28T02:26:50;-5.76;95.61
72320;SHT30;60269;52.502;16.732;2023-02-28T02:35:04;-6.12;96.40
72320;SHT30;60269;52.502;16.732;2023-02-28T02:38:57;-6.41;96.41
72320;SHT30;60269;52.502;16.732;2023-02-28T02:42:59;-6.53;97.76
72320;SHT30;60269;52.502;16.732;2023-02-28T02:46:35;-6.33;97.13
72320;SHT30;60269;52.502;16.732;2023-02-28T02:50:12;-5.94;96.47
72320;SHT30;60269;52.502;16.732;2023-02-28T02:53:57;-6.02;96.43
72320;SHT30;60269;52.502;16.732;2023-02-28T02:57:35;-6.48;98.83
72320;SHT30;60269;52.502;16.732;2023-02-28T03:01:13;-6.68;99.97
72320;SHT30;60269;52.502;16.732;2023-02-28T03:04:52;-6.60;99.71
72320;SHT30;60269;52.502;16.732;2023-02-28T03:08:25;-6.59;99.90
72320;SHT30;60269;52.502;16.732;2023-02-28T03:11:57;-6.60;99.23
72320;SHT30;60269;52.502;16.732;2023-02-28T03:15:40;-6.72;99.30
72320;SHT30;60269;52.502;16.732;2023-02-28T03:26:34;-6.33;97.03
72320;SHT30;60269;52.502;16.732;2023-02-28T03:34:17;-6.54;98.03
72320;SHT30;60269;52.502;16.732;2023-02-28T03:37:55;-6.56;97.80
72320;SHT30;60269;52.502;16.732;2023-02-28T03:41:38;-6.62;97.45
72320;SHT30;60269;52.502;16.732;2023-02-28T03:45:16;-6.59;97.28
72320;SHT30;60269;52.502;16.732;2023-02-28T03:49:34;-6.69;97.74
72320;SHT30;60269;52.502;16.732;2023-02-28T03:53:09;-6.58;97.77
72320;SHT30;60269;52.502;16.732;2023-02-28T03:56:48;-6.49;96.89
72320;SHT30;60269;52.502;16.732;2023-02-28T04:00:30;-6.38;96.94
72320;SHT30;60269;52.502;16.732;2023-02-28T04:04:03;-6.48;97.94
72320;SHT30;60269;52.502;16.732;2023-02-28T04:07:36;-6.73;99.99
72320;SHT30;60269;52.502;16.732;2023-02-28T04:11:22;-6.53;99.99
72320;SHT30;60269;52.502;16.732;2023-02-28T04:14:57;-6.48;99.75
72320;SHT30;60269;52.502;16.732;2023-02-28T04:18:29;-6.42;98.78
72320;SHT30;60269;52.502;16.732;2023-02-28T04:22:01;-6.84;99.50
72320;SHT30;60269;52.502;16.732;2023-02-28T04:25:33;-6.75;99.99
72320;SHT30;60269;52.502;16.732;2023-02-28T04:29:05;-6.53;99.99
72320;SHT30;60269;52.502;16.732;2023-02-28T04:32:39;-6.70;99.99
72320;SHT30;60269;52.502;16.732;2023-02-28T04:36:10;-6.70;99.99
72320;SHT30;60269;52.502;16.732;2023-02-28T04:39:43;-6.73;99.99
72320;SHT30;60269;52.502;16.732;2023-02-28T04:43:15;-6.70;99.99
72320;SHT30;60269;52.502;16.732;2023-02-28T04:46:48;-6.45;98.69
72320;SHT30;60269;52.502;16.732;2023-02-28T04:50:20;-6.36;97.62
72320;SHT30;60269;52.502;16.732;2023-02-28T04:53:53;-6.53;97.44
72320;SHT30;60269;52.502;16.732;2023-02-28T04:57:24;-6.68;97.54
72320;SHT30;60269;52.502;16.732;2023-02-28T05:01:06;-6.76;97.12
72320;SHT30;60269;52.502;16.732;2023-02-28T05:04:46;-6.86;96.92
72320;SHT30;60269;52.502;16.732;2023-02-28T05:08:19;-6.43;95.98
72320;SHT30;60269;52.502;16.732;2023-02-28T05:11:51;-6.31;96.27
72320;SHT30;60269;52.502;16.732;2023-02-28T05:15:24;-6.45;96.78
72320;SHT30;60269;52.502;16.732;2023-02-28T05:18:56;-6.39;96.36
72320;SHT30;60269;52.502;16.732;2023-02-28T05:22:29;-6.26;96.94
72320;SHT30;60269;52.502;16.732;2023-02-28T05:26:01;-6.14;97.62
72320;SHT30;60269;52.502;16.732;2023-02-28T05:29:33;-5.97;97.25
72320;SHT30;60269;52.502;16.732;2023-02-28T05:33:06;-6.00;97.31
72320;SHT30;60269;52.502;16.732;2023-02-28T05:36:38;-6.05;97.30
72320;SHT30;60269;52.502;16.732;2023-02-28T05:40:11;-6.24;97.66
72320;SHT30;60269;52.502;16.732;2023-02-28T05:43:43;-6.18;97.47
72320;SHT30;60269;52.502;16.732;2023-02-28T05:47:15;-6.20;96.86
72320;SHT30;60269;52.502;16.732;2023-02-28T05:50:48;-6.15;97.02
72320;SHT30;60269;52.502;16.732;2023-02-28T05:54:20;-6.38;97.66
72320;SHT30;60269;52.502;16.732;2023-02-28T05:57:52;-6.46;96.95
72320;SHT30;60269;52.502;16.732;2023-02-28T06:01:33;-6.50;98.09
72320;SHT30;60269;52.502;16.732;2023-02-28T06:05:24;-6.43;99.15
72320;SHT30;60269;52.502;16.732;2023-02-28T06:08:57;-6.52;98.58
72320;SHT30;60269;52.502;16.732;2023-02-28T06:12:28;-6.49;98.10
72320;SHT30;60269;52.502;16.732;2023-02-28T06:16:01;-6.02;98.54
72320;SHT30;60269;52.502;16.732;2023-02-28T06:19:33;-5.69;97.21
72320;SHT30;60269;52.502;16.732;2023-02-28T06:23:05;-5.74;97.40
72320;SHT30;60269;52.502;16.732;2023-02-28T06:26:37;-5.94;98.52
72320;SHT30;60269;52.502;16.732;2023-02-28T06:30:10;-5.74;98.11
72320;SHT30;60269;52.502;16.732;2023-02-28T06:33:43;-5.74;98.46
72320;SHT30;60269;52.502;16.732;2023-02-28T06:37:16;-5.67;98.79
72320;SHT30;60269;52.502;16.732;2023-02-28T06:40:55;-5.49;98.36
72320;SHT30;60269;52.502;16.732;2023-02-28T06:44:28;-5.42;99.64
72320;SHT30;60269;52.502;16.732;2023-02-28T06:48:06;-5.22;97.73
72320;SHT30;60269;52.502;16.732;2023-02-28T06:51:40;-4.98;98.76
72320;SHT30;60269;52.502;16.732;2023-02-28T06:55:15;-5.09;98.10
72320;SHT30;60269;52.502;16.732;2023-02-28T06:58:50;-4.87;97.92
72320;SHT30;60269;52.502;16.732;2023-02-28T07:02:24;-4.37;97.46
72320;SHT30;60269;52.502;16.732;2023-02-28T07:05:57;-3.99;96.56
72320;SHT30;60269;52.502;16.732;2023-02-28T07:09:30;-3.91;96.68
72320;SHT30;60269;52.502;16.732;2023-02-28T07:13:03;-3.35;96.35
72320;SHT30;60269;52.502;16.732;2023-02-28T07:16:36;-3.04;95.99
72320;SHT30;60269;52.502;16.732;2023-02-28T07:20:08;-2.60;94.97
72320;SHT30;60269;52.502;16.732;2023-02-28T07:23:40;-2.13;94.28
72320;SHT30;60269;52.502;16.732;2023-02-28T07:27:14;-1.77;95.12
72320;SHT30;60269;52.502;16.732;2023-02-28T07:30:55;-1.56;93.84
72320;SHT30;60269;52.502;16.732;2023-02-28T07:34:27;-1.35;93.15
72320;SHT30;60269;52.502;16.732;2023-02-28T07:38:00;-1.17;93.20
72320;SHT30;60269;52.502;16.732;2023-02-28T07:41:32;-0.98;94.40
72320;SHT30;60269;52.502;16.732;2023-02-28T07:45:07;-0.78;94.70
72320;SHT30;60269;52.502;16.732;2023-02-28T07:48:39;-0.61;94.83
72320;SHT30;60269;52.502;16.732;2023-02-28T07:52:11;-0.21;94.26
72320;SHT30;60269;52.502;16.732;2023-02-28T07:55:43;-0.02;94.85
72320;SHT30;60269;52.502;16.732;2023-02-28T07:59:15;0.12;95.07
72320;SHT30;60269;52.502;16.732;2023-02-28T08:02:47;0.25;93.80
72320;SHT30;60269;52.502;16.732;2023-02-28T08:06:21;0.22;92.22
72320;SHT30;60269;52.502;16.732;2023-02-28T08:09:53;0.50;93.40
72320;SHT30;60269;52.502;16.732;2023-02-28T08:13:26;0.81;93.42
72320;SHT30;60269;52.502;16.732;2023-02-28T08:16:58;0.87;91.32
72320;SHT30;60269;52.502;16.732;2023-02-28T08:20:31;0.91;91.38
72320;SHT30;60269;52.502;16.732;2023-02-28T08:24:03;1.23;92.27
72320;SHT30;60269;52.502;16.732;2023-02-28T08:27:35;1.28;89.08
72320;SHT30;60269;52.502;16.732;2023-02-28T08:31:09;1.52;88.43
72320;SHT30;60269;52.502;16.732;2023-02-28T08:34:43;1.60;88.66
72320;SHT30;60269;52.502;16.732;2023-02-28T08:38:18;1.67;88.71
72320;SHT30;60269;52.502;16.732;2023-02-28T08:41:50;1.77;88.55
72320;SHT30;60269;52.502;16.732;2023-02-28T08:45:36;1.97;88.13
72320;SHT30;60269;52.502;16.732;2023-02-28T08:49:10;2.21;87.30
72320;SHT30;60269;52.502;16.732;2023-02-28T08:52:43;2.34;85.17
72320;SHT30;60269;52.502;16.732;2023-02-28T08:56:16;2.54;84.47
72320;SHT30;60269;52.502;16.732;2023-02-28T08:59:52;2.82;84.72
72320;SHT30;60269;52.502;16.732;2023-02-28T09:03:24;3.30;79.82
72320;SHT30;60269;52.502;16.732;2023-02-28T09:06:56;3.57;78.74
72320;SHT30;60269;52.502;16.732;2023-02-28T09:10:28;3.68;78.96
72320;SHT30;60269;52.502;16.732;2023-02-28T09:14:01;4.24;75.21
72320;SHT30;60269;52.502;16.732;2023-02-28T09:17:35;4.43;74.81
72320;SHT30;60269;52.502;16.732;2023-02-28T09:21:09;4.88;72.05
72320;SHT30;60269;52.502;16.732;2023-02-28T09:24:42;5.05;70.88
72320;SHT30;60269;52.502;16.732;2023-02-28T09:28:14;5.61;68.44
72320;SHT30;60269;52.502;16.732;2023-02-28T09:31:49;5.74;69.05
72320;SHT30;60269;52.502;16.732;2023-02-28T09:35:23;6.18;66.83
72320;SHT30;60269;52.502;16.732;2023-02-28T09:38:57;6.46;65.57
72320;SHT30;60269;52.502;16.732;2023-02-28T09:42:33;6.44;65.63
72320;SHT30;60269;52.502;16.732;2023-02-28T09:46:18;7.05;62.01
72320;SHT30;60269;52.502;16.732;2023-02-28T09:50:03;7.26;60.91
72320;SHT30;60269;52.502;16.732;2023-02-28T09:53:39;7.79;60.99
72320;SHT30;60269;52.502;16.732;2023-02-28T09:57:35;8.25;57.18
72320;SHT30;60269;52.502;16.732;2023-02-28T10:05:13;8.31;56.22
72320;SHT30;60269;52.502;16.732;2023-02-28T10:09:04;8.89;55.57
72320;SHT30;60269;52.502;16.732;2023-02-28T10:12:44;9.06;54.15
72320;SHT30;60269;52.502;16.732;2023-02-28T10:16:46;9.42;51.07
72320;SHT30;60269;52.502;16.732;2023-02-28T10:20:24;8.79;53.12
72320;SHT30;60269;52.502;16.732;2023-02-28T10:27:50;7.84;57.99
72320;SHT30;60269;52.502;16.732;2023-02-28T10:31:25;8.45;53.97
72320;SHT30;60269;52.502;16.732;2023-02-28T10:35:01;9.52;50.76
72320;SHT30;60269;52.502;16.732;2023-02-28T10:38:39;9.86;47.82
72320;SHT30;60269;52.502;16.732;2023-02-28T10:42:28;10.86;48.91
72320;SHT30;60269;52.502;16.732;2023-02-28T10:46:11;11.37;46.94
72320;SHT30;60269;52.502;16.732;2023-02-28T10:49:48;11.73;46.17
72320;SHT30;60269;52.502;16.732;2023-02-28T10:57:25;12.15;41.77
72320;SHT30;60269;52.502;16.732;2023-02-28T11:00:59;11.50;41.69
72320;SHT30;60269;52.502;16.732;2023-02-28T11:04:34;11.57;41.47
72320;SHT30;60269;52.502;16.732;2023-02-28T11:08:14;11.01;42.34
72320;SHT30;60269;52.502;16.732;2023-02-28T11:11:47;10.07;45.36
72320;SHT30;60269;52.502;16.732;2023-02-28T11:15:27;10.47;43.16
72320;SHT30;60269;52.502;16.732;2023-02-28T11:18:59;10.82;44.20
72320;SHT30;60269;52.502;16.732;2023-02-28T11:22:37;10.98;43.07
72320;SHT30;60269;52.502;16.732;2023-02-28T11:26:10;10.40;42.92
72320;SHT30;60269;52.502;16.732;2023-02-28T11:29:47;10.55;44.17
72320;SHT30;60269;52.502;16.732;2023-02-28T11:36:59;12.02;39.68
72320;SHT30;60269;52.502;16.732;2023-02-28T11:48:04;12.28;36.94
72320;SHT30;60269;52.502;16.732;2023-02-28T11:51:56;11.91;37.39
72320;SHT30;60269;52.502;16.732;2023-02-28T11:56:30;11.34;38.09
72320;SHT30;60269;52.502;16.732;2023-02-28T12:00:24;11.29;38.82
72320;SHT30;60269;52.502;16.732;2023-02-28T12:16:06;13.41;34.23
72320;SHT30;60269;52.502;16.732;2023-02-28T12:27:28;13.22;31.27
72320;SHT30;60269;52.502;16.732;2023-02-28T12:31:29;12.04;35.11
72320;SHT30;60269;52.502;16.732;2023-02-28T12:35:13;12.32;34.68
72320;SHT30;60269;52.502;16.732;2023-02-28T12:39:33;12.06;34.00
72320;SHT30;60269;52.502;16.732;2023-02-28T12:43:04;12.29;35.00
72320;SHT30;60269;52.502;16.732;2023-02-28T12:46:41;11.51;36.89
72320;SHT30;60269;52.502;16.732;2023-02-28T12:50:36;12.63;35.68
72320;SHT30;60269;52.502;16.732;2023-02-28T12:58:11;13.08;35.65
72320;SHT30;60269;52.502;16.732;2023-02-28T13:02:11;12.32;35.09
72320;SHT30;60269;52.502;16.732;2023-02-28T13:09:57;12.60;36.57
72320;SHT30;60269;52.502;16.732;2023-02-28T13:13:31;12.98;35.76
72320;SHT30;60269;52.502;16.732;2023-02-28T13:20:48;14.42;33.21
72320;SHT30;60269;52.502;16.732;2023-02-28T13:28:11;14.13;34.00
72320;SHT30;60269;52.502;16.732;2023-02-28T13:35:43;14.21;32.99
72320;SHT30;60269;52.502;16.732;2023-02-28T13:43:16;13.77;35.26
72320;SHT30;60269;52.502;16.732;2023-02-28T13:50:39;14.13;33.83
72320;SHT30;60269;52.502;16.732;2023-02-28T14:02:11;13.31;35.76
72320;SHT30;60269;52.502;16.732;2023-02-28T14:10:01;13.26;34.85
72320;SHT30;60269;52.502;16.732;2023-02-28T14:17:15;11.24;37.30
72320;SHT30;60269;52.502;16.732;2023-02-28T14:20:55;11.33;38.28
72320;SHT30;60269;52.502;16.732;2023-02-28T14:32:15;11.91;36.14
72320;SHT30;60269;52.502;16.732;2023-02-28T14:36:04;11.66;37.03
72320;SHT30;60269;52.502;16.732;2023-02-28T14:39:41;11.92;36.53
72320;SHT30;60269;52.502;16.732;2023-02-28T14:43:22;12.08;35.87
72320;SHT30;60269;52.502;16.732;2023-02-28T14:47:02;12.02;35.40
72320;SHT30;60269;52.502;16.732;2023-02-28T14:50:37;11.57;36.59
72320;SHT30;60269;52.502;16.732;2023-02-28T14:54:14;11.33;36.86
72320;SHT30;60269;52.502;16.732;2023-02-28T14:57:56;11.61;36.05
72320;SHT30;60269;52.502;16.732;2023-02-28T15:01:28;11.49;36.46
72320;SHT30;60269;52.502;16.732;2023-02-28T15:05:20;10.36;37.67
72320;SHT30;60269;52.502;16.732;2023-02-28T15:09:16;9.93;39.15
72320;SHT30;60269;52.502;16.732;2023-02-28T15:13:02;10.29;38.78
72320;SHT30;60269;52.502;16.732;2023-02-28T15:16:37;10.41;38.36
72320;SHT30;60269;52.502;16.732;2023-02-28T15:20:14;10.30;38.05
72320;SHT30;60269;52.502;16.732;2023-02-28T15:24:18;10.09;39.15
72320;SHT30;60269;52.502;16.732;2023-02-28T15:27:56;10.00;39.05
72320;SHT30;60269;52.502;16.732;2023-02-28T15:31:34;9.82;39.94
72320;SHT30;60269;52.502;16.732;2023-02-28T15:35:30;9.45;39.93
72320;SHT30;60269;52.502;16.732;2023-02-28T15:39:20;9.08;40.41
72320;SHT30;60269;52.502;16.732;2023-02-28T15:43:18;8.77;41.25
72320;SHT30;60269;52.502;16.732;2023-02-28T15:47:01;8.50;41.72
72320;SHT30;60269;52.502;16.732;2023-02-28T15:50:34;7.95;42.54
72320;SHT30;60269;52.502;16.732;2023-02-28T15:54:08;7.62;43.20
72320;SHT30;60269;52.502;16.732;2023-02-28T15:57:46;7.19;43.80
72320;SHT30;60269;52.502;16.732;2023-02-28T16:01:29;6.91;45.04
72320;SHT30;60269;52.502;16.732;2023-02-28T16:05:22;6.53;46.31
72320;SHT30;60269;52.502;16.732;2023-02-28T16:09:06;6.12;46.86
72320;SHT30;60269;52.502;16.732;2023-02-28T16:12:39;5.81;47.17
72320;SHT30;60269;52.502;16.732;2023-02-28T16:16:21;5.25;49.24
72320;SHT30;60269;52.502;16.732;2023-02-28T16:19:54;4.74;51.23
72320;SHT30;60269;52.502;16.732;2023-02-28T16:23:28;3.92;53.31
72320;SHT30;60269;52.502;16.732;2023-02-28T16:27:00;3.23;55.90
72320;SHT30;60269;52.502;16.732;2023-02-28T16:30:32;2.66;57.84
72320;SHT30;60269;52.502;16.732;2023-02-28T16:34:05;2.14;59.52
72320;SHT30;60269;52.502;16.732;2023-02-28T16:37:37;1.97;60.71
72320;SHT30;60269;52.502;16.732;2023-02-28T16:41:13;1.77;61.28
72320;SHT30;60269;52.502;16.732;2023-02-28T16:44:49;1.51;62.06
72320;SHT30;60269;52.502;16.732;2023-02-28T16:48:20;1.03;64.03
72320;SHT30;60269;52.502;16.732;2023-02-28T16:51:53;0.60;65.87
72320;SHT30;60269;52.502;16.732;2023-02-28T16:55:26;0.25;67.10
72320;SHT30;60269;52.502;16.732;2023-02-28T16:59:01;0.30;66.75
72320;SHT30;60269;52.502;16.732;2023-02-28T17:02:33;0.21;66.80
72320;SHT30;60269;52.502;16.732;2023-02-28T17:06:11;-0.09;67.30
72320;SHT30;60269;52.502;16.732;2023-02-28T17:09:47;-0.37;68.10
72320;SHT30;60269;52.502;16.732;2023-02-28T17:13:20;-0.81;70.58
72320;SHT30;60269;52.502;16.732;2023-02-28T17:16:51;-1.32;73.03
72320;SHT30;60269;52.502;16.732;2023-02-28T17:20:24;-1.61;74.02
72320;SHT30;60269;52.502;16.732;2023-02-28T17:23:56;-1.48;74.85
72320;SHT30;60269;52.502;16.732;2023-02-28T17:27:28;-1.26;74.35
72320;SHT30;60269;52.502;16.732;2023-02-28T17:31:00;-1.36;75.96
72320;SHT30;60269;52.502;16.732;2023-02-28T17:34:33;-1.27;75.78
72320;SHT30;60269;52.502;16.732;2023-02-28T17:38:05;-1.16;78.00
72320;SHT30;60269;52.502;16.732;2023-02-28T17:41:42;-1.27;75.86
72320;SHT30;60269;52.502;16.732;2023-02-28T17:45:14;-1.27;76.53
72320;SHT30;60269;52.502;16.732;2023-02-28T17:48:48;-0.99;75.88
72320;SHT30;60269;52.502;16.732;2023-02-28T17:52:20;-0.87;74.72
72320;SHT30;60269;52.502;16.732;2023-02-28T17:55:54;-1.12;75.20
72320;SHT30;60269;52.502;16.732;2023-02-28T17:59:26;-1.68;77.49
72320;SHT30;60269;52.502;16.732;2023-02-28T18:03:05;-2.02;79.36
72320;SHT30;60269;52.502;16.732;2023-02-28T18:06:40;-2.32;80.31
72320;SHT30;60269;52.502;16.732;2023-02-28T18:10:20;-2.57;80.77
72320;SHT30;60269;52.502;16.732;2023-02-28T18:13:53;-2.61;81.23
72320;SHT30;60269;52.502;16.732;2023-02-28T18:17:27;-2.47;80.59
72320;SHT30;60269;52.502;16.732;2023-02-28T18:20:59;-2.81;81.96
72320;SHT30;60269;52.502;16.732;2023-02-28T18:24:32;-3.09;83.11
72320;SHT30;60269;52.502;16.732;2023-02-28T18:28:05;-3.11;83.29
72320;SHT30;60269;52.502;16.732;2023-02-28T18:31:37;-2.99;83.52
72320;SHT30;60269;52.502;16.732;2023-02-28T18:35:09;-3.06;85.24
72320;SHT30;60269;52.502;16.732;2023-02-28T18:38:42;-3.13;86.38
72320;SHT30;60269;52.502;16.732;2023-02-28T18:42:14;-3.13;87.14
72320;SHT30;60269;52.502;16.732;2023-02-28T18:45:46;-3.52;87.33
72320;SHT30;60269;52.502;16.732;2023-02-28T18:49:18;-3.67;88.13
72320;SHT30;60269;52.502;16.732;2023-02-28T18:52:50;-3.53;88.01
72320;SHT30;60269;52.502;16.732;2023-02-28T18:56:25;-3.77;87.83
72320;SHT30;60269;52.502;16.732;2023-02-28T18:59:58;-3.70;87.81
72320;SHT30;60269;52.502;16.732;2023-02-28T19:03:30;-3.73;87.35
72320;SHT30;60269;52.502;16.732;2023-02-28T19:07:03;-3.74;88.35
72320;SHT30;60269;52.502;16.732;2023-02-28T19:10:38;-3.93;90.39
72320;SHT30;60269;52.502;16.732;2023-02-28T19:14:10;-3.50;90.05
72320;SHT30;60269;52.502;16.732;2023-02-28T19:17:42;-3.12;88.34
72320;SHT30;60269;52.502;16.732;2023-02-28T19:21:18;-3.12;88.78
72320;SHT30;60269;52.502;16.732;2023-02-28T19:24:51;-3.26;88.56
72320;SHT30;60269;52.502;16.732;2023-02-28T19:28:27;-3.63;87.83
72320;SHT30;60269;52.502;16.732;2023-02-28T19:32:00;-4.06;89.14
72320;SHT30;60269;52.502;16.732;2023-02-28T19:35:35;-3.88;89.09
72320;SHT30;60269;52.502;16.732;2023-02-28T19:39:09;-3.70;88.21
72320;SHT30;60269;52.502;16.732;2023-02-28T19:42:41;-3.73;88.70
72320;SHT30;60269;52.502;16.732;2023-02-28T19:46:13;-3.46;87.51
72320;SHT30;60269;52.502;16.732;2023-02-28T19:49:45;-3.62;88.20
72320;SHT30;60269;52.502;16.732;2023-02-28T19:53:18;-3.47;87.54
72320;SHT30;60269;52.502;16.732;2023-02-28T19:56:51;-3.43;87.77
72320;SHT30;60269;52.502;16.732;2023-02-28T20:00:28;-3.54;87.95
72320;SHT30;60269;52.502;16.732;2023-02-28T20:04:00;-3.80;89.50
72320;SHT30;60269;52.502;16.732;2023-02-28T20:07:35;-4.02;90.44
72320;SHT30;60269;52.502;16.732;2023-02-28T20:11:13;-3.90;90.67
72320;SHT30;60269;52.502;16.732;2023-02-28T20:14:46;-3.39;91.19
72320;SHT30;60269;52.502;16.732;2023-02-28T20:18:18;-3.06;87.55
72320;SHT30;60269;52.502;16.732;2023-02-28T20:21:50;-3.08;86.71
72320;SHT30;60269;52.502;16.732;2023-02-28T20:25:22;-3.12;88.12
72320;SHT30;60269;52.502;16.732;2023-02-28T20:28:54;-3.60;89.32
72320;SHT30;60269;52.502;16.732;2023-02-28T20:32:27;-3.74;90.74
72320;SHT30;60269;52.502;16.732;2023-02-28T20:36:02;-3.87;91.98
72320;SHT30;60269;52.502;16.732;2023-02-28T20:39:36;-4.29;95.08
72320;SHT30;60269;52.502;16.732;2023-02-28T20:43:08;-4.60;94.66
72320;SHT30;60269;52.502;16.732;2023-02-28T20:46:40;-4.85;96.16
72320;SHT30;60269;52.502;16.732;2023-02-28T20:50:14;-4.91;96.62
72320;SHT30;60269;52.502;16.732;2023-02-28T20:53:48;-4.85;97.52
72320;SHT30;60269;52.502;16.732;2023-02-28T20:57:21;-4.98;98.20
72320;SHT30;60269;52.502;16.732;2023-02-28T21:01:03;-5.01;98.43
72320;SHT30;60269;52.502;16.732;2023-02-28T21:04:35;-4.95;97.00
72320;SHT30;60269;52.502;16.732;2023-02-28T21:08:07;-4.43;95.75
72320;SHT30;60269;52.502;16.732;2023-02-28T21:11:40;-4.23;94.77
72320;SHT30;60269;52.502;16.732;2023-02-28T21:15:12;-4.21;94.45
72320;SHT30;60269;52.502;16.732;2023-02-28T21:18:44;-4.06;95.82
72320;SHT30;60269;52.502;16.732;2023-02-28T21:22:17;-4.18;94.62
72320;SHT30;60269;52.502;16.732;2023-02-28T21:25:49;-4.74;96.11
72320;SHT30;60269;52.502;16.732;2023-02-28T21:29:21;-4.71;96.62
72320;SHT30;60269;52.502;16.732;2023-02-28T21:32:53;-4.32;97.10
72320;SHT30;60269;52.502;16.732;2023-02-28T21:36:28;-4.64;98.65
72320;SHT30;60269;52.502;16.732;2023-02-28T21:40:04;-4.84;99.64
72320;SHT30;60269;52.502;16.732;2023-02-28T21:43:37;-4.81;99.53
72320;SHT30;60269;52.502;16.732;2023-02-28T21:47:11;-5.11;99.99
72320;SHT30;60269;52.502;16.732;2023-02-28T21:50:54;-5.01;99.99
72320;SHT30;60269;52.502;16.732;2023-02-28T21:54:28;-4.91;99.99
72320;SHT30;60269;52.502;16.732;2023-02-28T21:58:02;-4.93;99.99
72320;SHT30;60269;52.502;16.732;2023-02-28T22:01:41;-4.95;99.99
72320;SHT30;60269;52.502;16.732;2023-02-28T22:05:15;-5.15;99.99
72320;SHT30;60269;52.502;16.732;2023-02-28T22:08:50;-4.80;99.99
72320;SHT30;60269;52.502;16.732;2023-02-28T22:12:22;-4.88;99.99
72320;SHT30;60269;52.502;16.732;2023-02-28T22:16:00;-4.37;99.99
72320;SHT30;60269;52.502;16.732;2023-02-28T22:19:33;-4.11;97.66
72320;SHT30;60269;52.502;16.732;2023-02-28T22:23:06;-3.97;96.21
72320;SHT30;60269;52.502;16.732;2023-02-28T22:26:38;-3.93;95.64
72320;SHT30;60269;52.502;16.732;2023-02-28T22:30:11;-3.83;95.14
72320;SHT30;60269;52.502;16.732;2023-02-28T22:33:44;-3.81;94.40
72320;SHT30;60269;52.502;16.732;2023-02-28T22:37:17;-3.74;94.20
72320;SHT30;60269;52.502;16.732;2023-02-28T22:40:50;-3.74;93.34
72320;SHT30;60269;52.502;16.732;2023-02-28T22:44:22;-4.02;94.15
72320;SHT30;60269;52.502;16.732;2023-02-28T22:47:54;-4.33;96.66
72320;SHT30;60269;52.502;16.732;2023-02-28T22:51:26;-4.54;97.83
72320;SHT30;60269;52.502;16.732;2023-02-28T22:54:59;-4.62;98.03
72320;SHT30;60269;52.502;16.732;2023-02-28T22:58:31;-4.74;99.22
72320;SHT30;60269;52.502;16.732;2023-02-28T23:02:03;-4.87;99.99
72320;SHT30;60269;52.502;16.732;2023-02-28T23:05:35;-4.81;99.99
72320;SHT30;60269;52.502;16.732;2023-02-28T23:09:13;-4.83;99.99
72320;SHT30;60269;52.502;16.732;2023-02-28T23:12:45;-4.90;99.99
72320;SHT30;60269;52.502;16.732;2023-02-28T23:20:01;-4.91;99.99
72320;SHT30;60269;52.502;16.732;2023-02-28T23:23:34;-4.79;99.99
72320;SHT30;60269;52.502;16.732;2023-02-28T23:27:06;-4.81;99.99
72320;SHT30;60269;52.502;16.732;2023-02-28T23:30:38;-4.57;99.25
72320;SHT30;60269;52.502;16.732;2023-02-28T23:34:10;-4.46;98.64
72320;SHT30;60269;52.502;16.732;2023-02-28T23:37:43;-4.69;98.68
72320;SHT30;60269;52.502;16.732;2023-02-28T23:41:15;-5.00;98.95
72320;SHT30;60269;52.502;16.732;2023-02-28T23:44:48;-4.90;97.65
72320;SHT30;60269;52.502;16.732;2023-02-28T23:48:20;-4.54;96.03
72320;SHT30;60269;52.502;16.732;2023-02-28T23:51:52;-4.29;95.26
72320;SHT30;60269;52.502;16.732;2023-02-28T23:55:25;-4.36;95.43
72320;SHT30;60269;52.502;16.732;2023-02-28T23:58:59;-4.49;96.67
